Big Bear Station Historical Data
Daily Summary for June 25, 2019 Units:  English    Metric   Both
Next Day »
Daily Weekly Monthly Yearly Custom
  High: Low: Average:
Temperature: 75 °F 44.2 °F 60 °F
Dew Point: 43.7 °F 20.9 °F 35.6 °F
Humidity: 76% 29% 42%
Wind Speed: 8.9mph 0mph 0.7mph
Wind Gust: -999mph - -
Wind- - West
Pressure: 23.50 in 23.46 in -
Precipitation: 0 in    
Historical Graphs
 
 
Tabular Data for June 25, 2019
Time Temperature Dew Point Pressure Wind Wind Speed Wind Gust Humidity Rainfall Rate (Hourly)
00:10 53.1 °F 24.7 °F 23.49 in Calm   -999 mph 33% 0.00 in
00:25 52.2 °F 23.2 °F 23.49 in Calm   -999 mph 32% 0.00 in
00:41 51.4 °F 23.9 °F 23.49 in Calm   -999 mph 34% 0.00 in
00:56 50.7 °F 24.7 °F 23.49 in Calm   -999 mph 36% 0.00 in
01:12 50.4 °F 30.4 °F 23.49 in Calm   -999 mph 46% 0.00 in
01:27 49.8 °F 31.9 °F 23.49 in Calm   -999 mph 50% 0.00 in
01:42 49.1 °F 31.3 °F 23.48 in Calm   -999 mph 50% 0.00 in
01:57 48.9 °F 27.4 °F 23.48 in Calm   -999 mph 43% 0.00 in
02:12 48.2 °F 26.7 °F 23.48 in Calm   -999 mph 43% 0.00 in
02:28 48 °F 28.7 °F 23.48 in Calm   -999 mph 47% 0.00 in
02:43 47.5 °F 29.8 °F 23.48 in Calm   -999 mph 50% 0.00 in
02:58 47.1 °F 27.9 °F 23.47 in Calm   -999 mph 47% 0.00 in
03:13 46.8 °F 29.1 °F 23.47 in Calm   -999 mph 50% 0.00 in
03:28 46.6 °F 28.9 °F 23.46 in Calm   -999 mph 50% 0.00 in
03:44 46 °F 28.9 °F 23.46 in Calm   -999 mph 51% 0.00 in
03:59 45.9 °F 31.1 °F 23.46 in Calm   -999 mph 56% 0.00 in
04:14 45.7 °F 28.6 °F 23.46 in Calm   -999 mph 51% 0.00 in
04:29 45.1 °F 28 °F 23.46 in Calm   -999 mph 51% 0.00 in
04:45 45.1 °F 30.8 °F 23.46 in Calm   -999 mph 57% 0.00 in
05:00 44.8 °F 32.2 °F 23.46 in Calm   -999 mph 61% 0.00 in
05:15 44.8 °F 31.8 °F 23.46 in Calm   -999 mph 60% 0.00 in
05:31 44.4 °F 30.5 °F 23.46 in Calm   -999 mph 58% 0.00 in
05:46 44.4 °F 32.6 °F 23.46 in Calm   -999 mph 63% 0.00 in
06:01 44.6 °F 34.7 °F 23.46 in Calm   -999 mph 68% 0.00 in
06:16 44.2 °F 35 °F 23.46 in Calm   -999 mph 70% 0.00 in
06:32 45.1 °F 37.3 °F 23.46 in Calm   -999 mph 74% 0.00 in
06:47 45.3 °F 38.2 °F 23.46 in Calm   -999 mph 76% 0.00 in
07:02 46.8 °F 38.2 °F 23.46 in Calm   -999 mph 72% 0.00 in
07:17 48.7 °F 39.4 °F 23.47 in Calm   -999 mph 70% 0.00 in
07:32 49.1 °F 40.1 °F 23.47 in Calm   -999 mph 71% 0.00 in
07:48 53.6 °F 36.9 °F 23.47 in Calm   -999 mph 53% 0.00 in
08:03 58.3 °F 35.9 °F 23.47 in Calm   -999 mph 43% 0.00 in
08:18 60.4 °F 36.6 °F 23.47 in Calm   -999 mph 41% 0.00 in
08:33 62.1 °F 36.8 °F 23.48 in Calm   -999 mph 39% 0.00 in
08:49 63.1 °F 37.7 °F 23.48 in Calm   -999 mph 39% 0.00 in
09:04 64 °F 37.9 °F 23.48 in NW 3.2 mph -999 mph 38% 0.00 in
09:19 65.3 °F 39 °F 23.48 in Calm   -999 mph 38% 0.00 in
09:34 65.5 °F 37.8 °F 23.48 in Calm   -999 mph 36% 0.00 in
09:49 66.7 °F 38.9 °F 23.48 in Calm   -999 mph 36% 0.00 in
10:05 67.8 °F 39.1 °F 23.49 in Calm   -999 mph 35% 0.00 in
10:20 69.6 °F 38.4 °F 23.48 in Calm   -999 mph 32% 0.00 in
10:35 70.3 °F 39 °F 23.49 in Calm   -999 mph 32% 0.00 in
10:50 69.6 °F 40 °F 23.49 in Calm   -999 mph 34% 0.00 in
11:06 68.5 °F 39.8 °F 23.49 in Calm   -999 mph 35% 0.00 in
11:21 70.7 °F 41 °F 23.49 in North 2.7 mph -999 mph 34% 0.00 in
11:36 70.5 °F 39.2 °F 23.49 in Calm   -999 mph 32% 0.00 in
11:51 72 °F 42.1 °F 23.49 in Calm   -999 mph 34% 0.00 in
12:06 72.5 °F 39.3 °F 23.49 in NNW 6.8 mph -999 mph 30% 0.00 in
12:22 71.4 °F 40 °F 23.49 in Calm   -999 mph 32% 0.00 in
12:37 71.1 °F 42.8 °F 23.49 in NW 5.3 mph -999 mph 36% 0.00 in
12:52 73 °F 41.4 °F 23.49 in Calm   -999 mph 32% 0.00 in
13:07 72.9 °F 40.5 °F 23.49 in Calm   -999 mph 31% 0.00 in
13:23 72 °F 38.9 °F 23.49 in Calm   -999 mph 30% 0.00 in
13:38 75 °F 42.3 °F 23.49 in Calm   -999 mph 31% 0.00 in
13:54 74.7 °F 42.1 °F 23.48 in NNW 3.2 mph -999 mph 31% 0.00 in
14:09 74.5 °F 41 °F 23.49 in WNW 1.1 mph -999 mph 30% 0.00 in
14:24 73.8 °F 42.1 °F 23.48 in WNW 1.7 mph -999 mph 32% 0.00 in
14:39 73.8 °F 41.3 °F 23.48 in Calm   -999 mph 31% 0.00 in
14:54 72.9 °F 40.5 °F 23.48 in Calm   -999 mph 31% 0.00 in
15:10 73.2 °F 41.6 °F 23.48 in Calm   -999 mph 32% 0.00 in
15:25 73.4 °F 39.2 °F 23.48 in West 3.2 mph -999 mph 29% 0.00 in
15:40 72.5 °F 38.4 °F 23.48 in West 3.2 mph -999 mph 29% 0.00 in
15:55 72.7 °F 39.5 °F 23.48 in East 8.9 mph -999 mph 30% 0.00 in
16:10 72.5 °F 40.1 °F 23.48 in NNW 1.1 mph -999 mph 31% 0.00 in
16:26 72.3 °F 41.6 °F 23.48 in Calm   -999 mph 33% 0.00 in
16:41 74.1 °F 41.5 °F 23.47 in Calm   -999 mph 31% 0.00 in
16:56 72.5 °F 43.3 °F 23.47 in Calm   -999 mph 35% 0.00 in
17:11 73.4 °F 40.9 °F 23.47 in NNE 6.3 mph -999 mph 31% 0.00 in
17:27 69.8 °F 43.7 °F 23.47 in NNW 3.2 mph -999 mph 39% 0.00 in
17:42 70.5 °F 43.7 °F 23.46 in West 1.1 mph -999 mph 38% 0.00 in
17:57 66.9 °F 43.1 °F 23.46 in Calm   -999 mph 42% 0.00 in
18:12 69.8 °F 40.2 °F 23.46 in Calm   -999 mph 34% 0.00 in
18:27 69.1 °F 40.3 °F 23.46 in Calm   -999 mph 35% 0.00 in
18:42 70.5 °F 41.5 °F 23.46 in WNW 6.3 mph -999 mph 35% 0.00 in
18:58 69.6 °F 40.7 °F 23.46 in SSE 2.2 mph -999 mph 35% 0.00 in
19:13 66.2 °F 39.8 °F 23.47 in Calm   -999 mph 38% 0.00 in
19:28 63.3 °F 39.2 °F 23.47 in Calm   -999 mph 41% 0.00 in
19:44 61.3 °F 38.6 °F 23.47 in Calm   -999 mph 43% 0.00 in
19:59 60.4 °F 38.4 °F 23.47 in Calm   -999 mph 44% 0.00 in
20:14 59.4 °F 40.2 °F 23.47 in WNW 5.3 mph -999 mph 49% 0.00 in
20:29 58.6 °F 39 °F 23.48 in Calm   -999 mph 48% 0.00 in
20:44 58.3 °F 38.2 °F 23.48 in Calm   -999 mph 47% 0.00 in
21:00 57.9 °F 37.2 °F 23.48 in Calm   -999 mph 46% 0.00 in
21:15 57.4 °F 33.9 °F 23.48 in Calm   -999 mph 41% 0.00 in
21:30 56.8 °F 33.3 °F 23.49 in Calm   -999 mph 41% 0.00 in
21:45 56.1 °F 31.5 °F 23.49 in Calm   -999 mph 39% 0.00 in
22:01 55.8 °F 31.2 °F 23.50 in Calm   -999 mph 39% 0.00 in
22:16 54.9 °F 29.8 °F 23.50 in Calm   -999 mph 38% 0.00 in
22:31 54.1 °F 27 °F 23.50 in Calm   -999 mph 35% 0.00 in
22:47 54.7 °F 23 °F 23.50 in Calm   -999 mph 29% 0.00 in
23:02 54.1 °F 24.1 °F 23.50 in Calm   -999 mph 31% 0.00 in
23:17 53.4 °F 21.9 °F 23.49 in Calm   -999 mph 29% 0.00 in
23:32 52.2 °F 20.9 °F 23.49 in Calm   -999 mph 29% 0.00 in
23:48 50.5 °F 25.2 °F 23.50 in Calm   -999 mph 37% 0.00 in
Big Bear CA Weather